Podhale (bahama Islands) — C6TX9 — position and weather

sailwx.info

Track history (hours):
 
Tides and Currents Weather Stations Pressure Air Temp Water Temp Dewpoint Dewpoint Depression Visibility Wind Speed Wind Dir Waves Ship Positions

Podhale (bahama Islands)

Last reported at 2016-Dec-02 22:33 UTC. Time now 2016-Dec-03 21:52 UTC.
Position N 28°22' W 015°59'.

Length 190 m; beam 24 m.

Type: Cargo ship. MMSI: 311831000.

Date/timePositionNaut miles runAvg speedWind from/ knotsBaromVisibWave heightAir tempDewpointWater temp
2016-Dec-02 22:33N 28°22' W 015°59'1312.9
2016-Dec-02 21:33N 28°32' W 015°50'1312.7
2016-Dec-02 20:33N 28°43' W 015°43'1312.9
2016-Dec-02 19:33N 28°56' W 015°39'1313.0
2016-Dec-02 18:33N 29°08' W 015°34'1313.3
2016-Dec-02 17:32N 29°21' W 015°30'1413.1
2016-Dec-02 16:30N 29°34' W 015°24'1213.2
2016-Dec-02 15:33N 29°46' W 015°22'5512.8
2016-Dec-02 11:16N 30°37' W 015°01'913.0
2016-Dec-02 10:33N 30°46' W 014°58'1312.6
2016-Dec-02 09:33N 30°58' W 014°52'1313.2
2016-Dec-02 08:33N 31°11' W 014°48'1613.4
2016-Dec-02 07:23N 31°26' W 014°43'1113.9
2016-Dec-02 06:33N 31°37' W 014°40'1413.8
2016-Dec-02 05:33N 31°50' W 014°34'  
2016-Nov-28 05:28N 49°47' W 003°26'1111.8
2016-Nov-28 04:33N 49°52' W 003°11'1212.4
2016-Nov-28 03:33N 50°00' W 002°56'3214.6
2016-Nov-28 01:20N 50°09' W 002°08'1216.3
2016-Nov-28 00:33N 50°13' W 001°49'1616.0
2016-Nov-27 23:33N 50°17' W 001°25'4013.3
2016-Nov-27 20:33N 50°27' W 000°24'1211.7
2016-Nov-27 19:31N 50°30' W 000°06'1111.7
2016-Nov-27 18:33N 50°33' E 000°11'3113.3
2016-Nov-27 16:11N 50°48' E 000°55'914.7
2016-Nov-27 15:33N 50°53' E 001°07'1414.3
2016-Nov-27 14:33N 51°03' E 001°24'1312.9
2016-Nov-27 13:33N 51°10' E 001°40'1211.7
2016-Nov-27 12:34N 51°20' E 001°52'1211.8
2016-Nov-27 11:34N 51°30' E 002°02'1312.4
2016-Nov-27 10:32N 51°39' E 002°15'1313.0
2016-Nov-27 09:31N 51°49' E 002°29'4314.3
2016-Nov-27 06:31N 52°30' E 002°53'1414.5
2016-Nov-27 05:33N 52°42' E 003°04'4313.0
2016-Nov-27 02:14N 53°23' E 003°30'912.8
2016-Nov-27 01:31N 53°31' E 003°34'1412.7
2016-Nov-27 00:23N 53°45' E 003°43'1313.5
2016-Nov-26 23:24N 53°53' E 004°02'26412.5
2016-Nov-26 02:13N 57°25' E 008°40'5310.8
2016-Nov-25 21:19N 57°48' E 010°09'810.8
2016-Nov-25 20:34N 57°48' E 010°24'1110.9
2016-Nov-25 19:34N 57°48' E 010°45'1110.9
2016-Nov-25 18:33N 57°42' E 011°02'1111.0
2016-Nov-25 17:34N 57°34' E 011°16'1211.7
2016-Nov-25 16:33N 57°25' E 011°29'1212.3
2016-Nov-25 15:33N 57°13' E 011°36'1212.3
2016-Nov-25 14:33N 57°01' E 011°43'1312.9
2016-Nov-25 13:33N 56°49' E 011°51'1212.3
2016-Nov-25 12:33N 56°37' E 011°45'1313.2
2016-Nov-25 11:34N 56°26' E 011°33'1313.0
2016-Nov-25 10:32N 56°15' E 011°21'1412.9
2016-Nov-25 09:29N 56°03' E 011°07'1212.8
2016-Nov-25 08:33N 55°53' E 010°55'3511.7
2016-Nov-25 05:33N 55°19' E 011°03'1111.0
2016-Nov-25 04:33N 55°08' E 010°59'1211.7
2016-Nov-25 03:33N 54°57' E 010°54'1212.2
2016-Nov-25 02:33N 54°45' E 010°47'1010.4
2016-Nov-25 01:33N 54°37' E 010°59'1211.5
2016-Nov-25 00:33N 54°34' E 011°18'1312.5
2016-Nov-24 23:33N 54°28' E 011°37'1212.3
2016-Nov-24 22:33N 54°26' E 011°58'1010.3
2016-Nov-24 21:33N 54°31' E 012°13'1212.1
2016-Nov-24 20:33N 54°40' E 012°28'4012.6
2016-Nov-24 17:21N 54°57' E 013°31'1012.8
2016-Nov-24 16:34N 55°01' E 013°48'1312.4
2016-Nov-24 15:32N 55°07' E 014°07'1212.7
2016-Nov-24 14:33N 55°16' E 014°21'1313.1
2016-Nov-24 13:33N 55°26' E 014°35'1312.9
2016-Nov-24 12:33N 55°33' E 014°55'1312.9
2016-Nov-24 11:33N 55°39' E 015°15'2613.3
2016-Nov-24 09:33N 55°52' E 015°57'31612.6
2016-Nov-23 08:25N 59°34' E 022°56'1112.6
2016-Nov-23 07:33N 59°38' E 023°16'1312.5
2016-Nov-23 06:33N 59°41' E 023°40'7912.7
2016-Nov-23 00:19N 59°59' E 026°14'1012.9
2016-Nov-22 23:33N 60°01' E 026°33'  
Track history (hours):
 
Tides and Currents Weather Stations Pressure Air Temp Water Temp Dewpoint Dewpoint Depression Visibility Wind Speed Wind Dir Waves Ship Positions

Podhale (bahama Islands)

Last reported at 2016-Dec-02 22:33 UTC. Time now 2016-Dec-03 21:52 UTC.
Position N 28°22' W 015°59'.

Length 190 m; beam 24 m.

Type: Cargo ship. MMSI: 311831000.

Date/timePositionNaut miles runAvg speedWind from/ knotsBaromVisibWave heightAir tempDewpointWater temp
2016-Dec-02 22:33N 28°22' W 015°59'1312.9
2016-Dec-02 21:33N 28°32' W 015°50'1312.7
2016-Dec-02 20:33N 28°43' W 015°43'1312.9
2016-Dec-02 19:33N 28°56' W 015°39'1313.0
2016-Dec-02 18:33N 29°08' W 015°34'1313.3
2016-Dec-02 17:32N 29°21' W 015°30'1413.1
2016-Dec-02 16:30N 29°34' W 015°24'1213.2
2016-Dec-02 15:33N 29°46' W 015°22'5512.8
2016-Dec-02 11:16N 30°37' W 015°01'913.0
2016-Dec-02 10:33N 30°46' W 014°58'1312.6
2016-Dec-02 09:33N 30°58' W 014°52'1313.2
2016-Dec-02 08:33N 31°11' W 014°48'1613.4
2016-Dec-02 07:23N 31°26' W 014°43'1113.9
2016-Dec-02 06:33N 31°37' W 014°40'1413.8
2016-Dec-02 05:33N 31°50' W 014°34'  
2016-Nov-28 05:28N 49°47' W 003°26'1111.8
2016-Nov-28 04:33N 49°52' W 003°11'1212.4
2016-Nov-28 03:33N 50°00' W 002°56'3214.6
2016-Nov-28 01:20N 50°09' W 002°08'1216.3
2016-Nov-28 00:33N 50°13' W 001°49'1616.0
2016-Nov-27 23:33N 50°17' W 001°25'4013.3
2016-Nov-27 20:33N 50°27' W 000°24'1211.7
2016-Nov-27 19:31N 50°30' W 000°06'1111.7
2016-Nov-27 18:33N 50°33' E 000°11'3113.3
2016-Nov-27 16:11N 50°48' E 000°55'914.7
2016-Nov-27 15:33N 50°53' E 001°07'1414.3
2016-Nov-27 14:33N 51°03' E 001°24'1312.9
2016-Nov-27 13:33N 51°10' E 001°40'1211.7
2016-Nov-27 12:34N 51°20' E 001°52'1211.8
2016-Nov-27 11:34N 51°30' E 002°02'1312.4
2016-Nov-27 10:32N 51°39' E 002°15'1313.0
2016-Nov-27 09:31N 51°49' E 002°29'4314.3
2016-Nov-27 06:31N 52°30' E 002°53'1414.5
2016-Nov-27 05:33N 52°42' E 003°04'4313.0
2016-Nov-27 02:14N 53°23' E 003°30'912.8
2016-Nov-27 01:31N 53°31' E 003°34'1412.7
2016-Nov-27 00:23N 53°45' E 003°43'1313.5
2016-Nov-26 23:24N 53°53' E 004°02'26412.5
2016-Nov-26 02:13N 57°25' E 008°40'5310.8
2016-Nov-25 21:19N 57°48' E 010°09'810.8
2016-Nov-25 20:34N 57°48' E 010°24'1110.9
2016-Nov-25 19:34N 57°48' E 010°45'1110.9
2016-Nov-25 18:33N 57°42' E 011°02'1111.0
2016-Nov-25 17:34N 57°34' E 011°16'1211.7
2016-Nov-25 16:33N 57°25' E 011°29'1212.3
2016-Nov-25 15:33N 57°13' E 011°36'1212.3
2016-Nov-25 14:33N 57°01' E 011°43'1312.9
2016-Nov-25 13:33N 56°49' E 011°51'1212.3
2016-Nov-25 12:33N 56°37' E 011°45'1313.2
2016-Nov-25 11:34N 56°26' E 011°33'1313.0
2016-Nov-25 10:32N 56°15' E 011°21'1412.9
2016-Nov-25 09:29N 56°03' E 011°07'1212.8
2016-Nov-25 08:33N 55°53' E 010°55'3511.7
2016-Nov-25 05:33N 55°19' E 011°03'1111.0
2016-Nov-25 04:33N 55°08' E 010°59'1211.7
2016-Nov-25 03:33N 54°57' E 010°54'1212.2
2016-Nov-25 02:33N 54°45' E 010°47'1010.4
2016-Nov-25 01:33N 54°37' E 010°59'1211.5
2016-Nov-25 00:33N 54°34' E 011°18'1312.5
2016-Nov-24 23:33N 54°28' E 011°37'1212.3
2016-Nov-24 22:33N 54°26' E 011°58'1010.3
2016-Nov-24 21:33N 54°31' E 012°13'1212.1
2016-Nov-24 20:33N 54°40' E 012°28'4012.6
2016-Nov-24 17:21N 54°57' E 013°31'1012.8
2016-Nov-24 16:34N 55°01' E 013°48'1312.4
2016-Nov-24 15:32N 55°07' E 014°07'1212.7
2016-Nov-24 14:33N 55°16' E 014°21'1313.1
2016-Nov-24 13:33N 55°26' E 014°35'1312.9
2016-Nov-24 12:33N 55°33' E 014°55'1312.9
2016-Nov-24 11:33N 55°39' E 015°15'2613.3
2016-Nov-24 09:33N 55°52' E 015°57'31612.6
2016-Nov-23 08:25N 59°34' E 022°56'1112.6
2016-Nov-23 07:33N 59°38' E 023°16'1312.5
2016-Nov-23 06:33N 59°41' E 023°40'7912.7
2016-Nov-23 00:19N 59°59' E 026°14'1012.9
2016-Nov-22 23:33N 60°01' E 026°33'  

Dump ship's entire track history